Time;durP1;ratioP1;P1;durP2;ratioP2;P2;SDS_P1;SDS_P2;PMS_P1;PMS_P2;Temp;Humidity;BMP_temperature;BMP_pressure;BME280_temperature;BME280_humidity;BME280_pressure;Samples;Min_cycle;Max_cycle;Signal;HPM_P1;HPM_P2
2022/08/30 00:01:13;;;;;;;2.20;1.80;;;;;;;;;;5121012;28;20231;-63
2022/08/30 00:03:44;;;;;;;2.53;1.83;;;;;;;;;;5121384;28;20231;-63
2022/08/30 00:06:13;;;;;;;4.00;1.80;;;;;;;;;;5121405;28;20289;-63
2022/08/30 00:08:42;;;;;;;2.70;1.70;;;;;;;;;;5121519;28;20240;-63
2022/08/30 00:11:11;;;;;;;2.27;1.90;;;;;;;;;;5120868;28;20230;-63
2022/08/30 00:13:40;;;;;;;3.53;1.67;;;;;;;;;;5121268;28;20267;-63
2022/08/30 00:16:09;;;;;;;1.73;1.60;;;;;;;;;;5120594;28;20206;-63
2022/08/30 00:18:37;;;;;;;1.83;1.73;;;;;;;;;;5109288;28;20216;-63
2022/08/30 00:21:05;;;;;;;2.47;1.77;;;;;;;;;;5100458;28;20699;-62
2022/08/30 00:23:33;;;;;;;5.97;1.83;;;;;;;;;;5108284;28;20267;-63
2022/08/30 00:26:01;;;;;;;5.67;2.40;;;;;;;;;;5120649;28;20210;-63
2022/08/30 00:28:31;;;;;;;1.83;1.63;;;;;;;;;;5120550;28;20247;-63
2022/08/30 00:30:58;;;;;;;3.83;1.83;;;;;;;;;;5120371;28;20735;-63
2022/08/30 00:33:28;;;;;;;2.30;1.63;;;;;;;;;;5120835;28;20230;-61
2022/08/30 00:35:56;;;;;;;2.40;2.00;;;;;;;;;;5120609;28;20613;-63
2022/08/30 00:38:24;;;;;;;2.40;1.80;;;;;;;;;;5120739;28;20215;-62
2022/08/30 00:40:52;;;;;;;3.80;1.63;;;;;;;;;;5120623;28;20263;-63
2022/08/30 00:43:22;;;;;;;2.80;1.50;;;;;;;;;;5120308;28;20244;-62
2022/08/30 00:45:51;;;;;;;4.60;1.53;;;;;;;;;;5120365;28;20208;-62
2022/08/30 00:48:20;;;;;;;1.90;1.60;;;;;;;;;;5120750;28;20218;-62
2022/08/30 00:50:52;;;;;;;1.60;1.50;;;;;;;;;;5120491;28;20215;-61
2022/08/30 00:53:23;;;;;;;1.87;1.60;;;;;;;;;;5120047;28;20275;-61
2022/08/30 00:55:51;;;;;;;4.17;1.50;;;;;;;;;;5120427;28;20201;-61
2022/08/30 00:58:20;;;;;;;3.60;1.80;;;;;;;;;;5120357;28;20216;-61
2022/08/30 01:00:49;;;;;;;2.20;1.70;;;;;;;;;;5120105;28;20213;-63
2022/08/30 01:03:17;;;;;;;3.97;1.50;;;;;;;;;;5119923;28;20746;-63
2022/08/30 01:05:45;;;;;;;3.03;1.60;;;;;;;;;;5120350;28;20202;-63
2022/08/30 01:08:15;;;;;;;1.70;1.60;;;;;;;;;;5120192;28;20243;-62
2022/08/30 01:10:43;;;;;;;3.23;1.20;;;;;;;;;;5120144;28;20246;-62
2022/08/30 01:13:12;;;;;;;3.07;1.80;;;;;;;;;;5120002;28;20260;-63
2022/08/30 01:15:41;;;;;;;2.63;1.60;;;;;;;;;;5119716;28;20218;-63
2022/08/30 01:18:10;;;;;;;3.27;1.50;;;;;;;;;;5111609;28;20593;-63
2022/08/30 01:20:44;;;;;;;3.73;1.80;;;;;;;;;;5099548;28;20208;-62
2022/08/30 01:23:15;;;;;;;2.10;1.83;;;;;;;;;;5104194;28;20221;-62
2022/08/30 01:25:45;;;;;;;1.60;1.50;;;;;;;;;;5119765;28;20216;-63
2022/08/30 01:28:14;;;;;;;3.00;1.67;;;;;;;;;;5119874;28;20244;-62
2022/08/30 01:30:42;;;;;;;2.37;1.57;;;;;;;;;;5119489;28;20210;-63
2022/08/30 01:33:11;;;;;;;5.13;1.63;;;;;;;;;;5119579;28;20228;-63
2022/08/30 01:35:44;;;;;;;3.17;2.17;;;;;;;;;;5119639;28;20240;-62
2022/08/30 01:38:12;;;;;;;3.20;1.60;;;;;;;;;;5119867;28;20210;-63
2022/08/30 01:40:42;;;;;;;2.23;1.53;;;;;;;;;;5118230;28;20620;-63
2022/08/30 01:43:11;;;;;;;5.67;1.90;;;;;;;;;;5119259;28;20255;-63
2022/08/30 01:45:39;;;;;;;1.93;1.80;;;;;;;;;;5119232;28;20237;-63
2022/08/30 01:48:07;;;;;;;2.03;1.80;;;;;;;;;;5119322;28;20239;-63
2022/08/30 01:50:35;;;;;;;5.17;1.63;;;;;;;;;;5119099;28;20260;-62
2022/08/30 01:53:06;;;;;;;2.80;1.80;;;;;;;;;;5118824;28;20250;-62
2022/08/30 01:55:39;;;;;;;1.97;1.70;;;;;;;;;;5119168;28;20205;-63
2022/08/30 01:58:09;;;;;;;6.83;2.10;;;;;;;;;;5118923;28;20688;-63
2022/08/30 02:00:37;;;;;;;3.23;1.67;;;;;;;;;;5119018;28;20208;-63
2022/08/30 02:03:05;;;;;;;2.30;1.40;;;;;;;;;;5118750;28;20199;-62
2022/08/30 02:05:33;;;;;;;3.97;1.60;;;;;;;;;;5119173;28;20238;-63
2022/08/30 02:08:02;;;;;;;3.30;1.90;;;;;;;;;;5119001;28;20236;-63
2022/08/30 02:10:30;;;;;;;4.13;1.80;;;;;;;;;;5118989;28;20239;-63
2022/08/30 02:12:58;;;;;;;1.57;1.47;;;;;;;;;;5118482;28;20843;-63
2022/08/30 02:15:27;;;;;;;2.10;1.80;;;;;;;;;;5118416;28;20655;-62
2022/08/30 02:17:55;;;;;;;1.97;1.77;;;;;;;;;;5112671;28;20232;-62
2022/08/30 02:20:23;;;;;;;2.93;1.50;;;;;;;;;;5098578;28;20236;-62
2022/08/30 02:22:51;;;;;;;2.90;1.80;;;;;;;;;;5099989;28;20243;-63
2022/08/30 02:25:19;;;;;;;1.50;1.40;;;;;;;;;;5118398;28;20236;-63
2022/08/30 02:27:48;;;;;;;1.80;1.70;;;;;;;;;;5118758;28;20201;-63
2022/08/30 02:30:15;;;;;;;4.17;2.10;;;;;;;;;;5118554;28;20203;-63
2022/08/30 02:32:45;;;;;;;4.30;1.67;;;;;;;;;;5118214;28;20642;-62
2022/08/30 02:35:13;;;;;;;1.93;1.80;;;;;;;;;;5118298;28;20307;-63
2022/08/30 02:37:41;;;;;;;3.70;1.60;;;;;;;;;;5116742;28;20572;-63
2022/08/30 02:40:10;;;;;;;2.37;2.00;;;;;;;;;;5104210;28;20239;-62
2022/08/30 02:42:38;;;;;;;8.07;1.90;;;;;;;;;;5117272;28;20680;-62
2022/08/30 02:45:06;;;;;;;2.13;1.80;;;;;;;;;;5117454;28;20270;-63
2022/08/30 02:47:34;;;;;;;3.10;1.90;;;;;;;;;;5117870;28;20208;-62
2022/08/30 02:50:04;;;;;;;2.97;2.00;;;;;;;;;;5118409;28;20246;-62
2022/08/30 02:52:32;;;;;;;4.10;2.40;;;;;;;;;;5117775;28;20274;-62
2022/08/30 02:55:00;;;;;;;2.90;2.33;;;;;;;;;;5117907;28;20254;-63
2022/08/30 02:57:28;;;;;;;6.23;3.37;;;;;;;;;;5117823;28;20667;-62
2022/08/30 02:59:56;;;;;;;6.87;3.37;;;;;;;;;;5118254;28;20318;-62
2022/08/30 03:02:24;;;;;;;4.00;3.13;;;;;;;;;;5117840;28;20232;-62
2022/08/30 03:04:52;;;;;;;3.60;2.70;;;;;;;;;;5117851;28;20259;-63
2022/08/30 03:07:22;;;;;;;4.13;2.50;;;;;;;;;;5118349;28;20213;-62
2022/08/30 03:09:50;;;;;;;3.97;2.37;;;;;;;;;;5118026;28;20235;-62
2022/08/30 03:12:18;;;;;;;3.00;2.17;;;;;;;;;;5118172;28;20236;-62
2022/08/30 03:14:47;;;;;;;3.57;2.07;;;;;;;;;;5118164;28;20264;-62
2022/08/30 03:17:15;;;;;;;2.90;2.20;;;;;;;;;;5117087;28;20203;-62
2022/08/30 03:19:43;;;;;;;2.93;2.00;;;;;;;;;;5097833;28;20236;-63
2022/08/30 03:22:12;;;;;;;5.67;2.63;;;;;;;;;;5097772;28;20243;-62
2022/08/30 03:24:41;;;;;;;3.47;2.73;;;;;;;;;;5114404;28;20220;-63
2022/08/30 03:27:09;;;;;;;3.10;2.50;;;;;;;;;;5118007;28;20208;-62
2022/08/30 03:29:38;;;;;;;2.37;2.10;;;;;;;;;;5118087;28;20236;-62
2022/08/30 03:32:06;;;;;;;4.00;1.80;;;;;;;;;;5117810;28;20212;-62
2022/08/30 03:34:34;;;;;;;2.07;1.87;;;;;;;;;;5117629;28;20246;-62
2022/08/30 03:37:02;;;;;;;3.50;2.00;;;;;;;;;;5117986;28;20232;-62
2022/08/30 03:39:30;;;;;;;2.53;2.33;;;;;;;;;;5117807;28;20643;-62
2022/08/30 03:42:00;;;;;;;4.07;2.30;;;;;;;;;;5117607;28;20203;-62
2022/08/30 03:44:29;;;;;;;3.53;2.13;;;;;;;;;;5117701;28;20699;-62
2022/08/30 03:46:57;;;;;;;3.83;2.30;;;;;;;;;;5117617;28;20235;-62
2022/08/30 03:49:25;;;;;;;7.33;2.43;;;;;;;;;;5117963;28;20231;-62
2022/08/30 03:51:53;;;;;;;2.00;1.80;;;;;;;;;;5117619;28;20245;-62
2022/08/30 03:54:21;;;;;;;4.50;2.17;;;;;;;;;;5117761;28;20267;-62
2022/08/30 03:56:51;;;;;;;3.97;2.43;;;;;;;;;;5117698;28;20263;-63
2022/08/30 03:59:20;;;;;;;3.67;2.57;;;;;;;;;;5117631;28;20650;-63
2022/08/30 04:01:48;;;;;;;3.67;2.50;;;;;;;;;;5117278;28;20239;-63
2022/08/30 04:04:16;;;;;;;4.80;2.53;;;;;;;;;;5119687;28;20633;-62
2022/08/30 04:06:47;;;;;;;4.30;2.27;;;;;;;;;;5121212;28;20546;-62
2022/08/30 04:09:15;;;;;;;2.70;1.77;;;;;;;;;;5121100;28;20683;-62
2022/08/30 04:11:43;;;;;;;2.70;2.20;;;;;;;;;;5120937;28;20641;-62
2022/08/30 04:14:11;;;;;;;2.43;2.20;;;;;;;;;;5120850;27;20261;-62
2022/08/30 04:16:41;;;;;;;2.67;2.43;;;;;;;;;;5120549;28;20245;-62
2022/08/30 04:19:09;;;;;;;3.77;2.50;;;;;;;;;;5104533;28;20213;-62
2022/08/30 04:21:37;;;;;;;3.57;2.57;;;;;;;;;;5100462;28;20621;-63
2022/08/30 04:24:09;;;;;;;3.07;2.10;;;;;;;;;;5113242;28;20220;-62
2022/08/30 04:26:37;;;;;;;3.17;2.50;;;;;;;;;;5120977;28;20244;-62
2022/08/30 04:29:06;;;;;;;4.17;2.70;;;;;;;;;;5120922;27;20240;-62
2022/08/30 04:31:34;;;;;;;2.40;2.17;;;;;;;;;;5120390;28;20243;-63
2022/08/30 04:34:03;;;;;;;3.07;2.13;;;;;;;;;;5120418;28;20685;-63
2022/08/30 04:36:31;;;;;;;3.33;2.40;;;;;;;;;;5120446;28;20733;-62
2022/08/30 04:38:59;;;;;;;3.50;2.23;;;;;;;;;;5117108;28;20245;-62
2022/08/30 04:41:27;;;;;;;2.23;2.10;;;;;;;;;;5120118;28;20224;-62
2022/08/30 04:43:55;;;;;;;3.10;2.30;;;;;;;;;;5111236;28;20222;-62
2022/08/30 04:46:23;;;;;;;6.30;2.80;;;;;;;;;;5120126;28;20206;-62
2022/08/30 04:48:51;;;;;;;5.97;3.00;;;;;;;;;;5120061;28;20235;-62
2022/08/30 04:51:20;;;;;;;4.80;3.00;;;;;;;;;;5120081;28;20304;-62
2022/08/30 04:53:48;;;;;;;7.17;2.97;;;;;;;;;;5119816;28;20263;-62
2022/08/30 04:56:18;;;;;;;4.73;2.67;;;;;;;;;;5119939;28;20232;-62
2022/08/30 04:58:47;;;;;;;4.20;2.50;;;;;;;;;;5119990;28;20665;-62
2022/08/30 05:01:16;;;;;;;3.77;2.30;;;;;;;;;;5116145;28;20244;-62
2022/08/30 05:03:46;;;;;;;3.33;2.63;;;;;;;;;;5120212;28;20229;-62
2022/08/30 05:06:14;;;;;;;7.33;2.70;;;;;;;;;;5119897;28;20293;-62
2022/08/30 05:08:44;;;;;;;7.23;2.70;;;;;;;;;;5120069;28;20238;-62
2022/08/30 05:11:14;;;;;;;4.27;2.67;;;;;;;;;;5119985;28;20212;-62
2022/08/30 05:13:42;;;;;;;5.00;3.03;;;;;;;;;;5119715;28;20234;-62
2022/08/30 05:16:12;;;;;;;6.13;3.00;;;;;;;;;;5115094;28;20243;-62
2022/08/30 05:18:40;;;;;;;6.97;4.03;;;;;;;;;;5118579;28;20262;-62
2022/08/30 05:21:09;;;;;;;6.67;3.63;;;;;;;;;;5118784;28;20236;-62
2022/08/30 05:23:38;;;;;;;5.87;3.50;;;;;;;;;;5116174;27;20224;-62
2022/08/30 05:26:08;;;;;;;7.13;3.40;;;;;;;;;;5098841;28;20237;-62
2022/08/30 05:28:36;;;;;;;6.00;3.33;;;;;;;;;;5099283;28;20242;-62
2022/08/30 05:31:12;;;;;;;3.93;2.60;;;;;;;;;;5098729;28;20609;-62
2022/08/30 05:33:40;;;;;;;4.10;2.70;;;;;;;;;;5098439;28;20586;-62
2022/08/30 05:36:09;;;;;;;3.30;2.20;;;;;;;;;;5099064;28;20233;-62
2022/08/30 05:38:37;;;;;;;4.93;2.03;;;;;;;;;;5098949;28;20232;-62
2022/08/30 05:41:05;;;;;;;2.67;2.23;;;;;;;;;;5098949;28;20242;-62
2022/08/30 05:43:39;;;;;;;3.00;2.30;;;;;;;;;;5098738;28;20251;-62
2022/08/30 05:46:09;;;;;;;2.67;2.23;;;;;;;;;;5098081;28;20207;-62
2022/08/30 05:48:37;;;;;;;3.40;2.13;;;;;;;;;;5096996;28;20208;-62
2022/08/30 05:51:07;;;;;;;2.20;2.00;;;;;;;;;;5096781;28;20241;-62
2022/08/30 05:53:35;;;;;;;2.67;2.17;;;;;;;;;;5096535;28;20280;-62
2022/08/30 05:56:05;;;;;;;5.03;2.30;;;;;;;;;;5096547;28;20246;-62
2022/08/30 05:58:33;;;;;;;2.20;1.80;;;;;;;;;;5096774;28;20235;-62
2022/08/30 06:01:02;;;;;;;4.07;2.23;;;;;;;;;;5096713;28;20710;-62
2022/08/30 06:03:31;;;;;;;3.70;2.13;;;;;;;;;;5098535;28;20267;-62
2022/08/30 06:06:00;;;;;;;2.57;2.13;;;;;;;;;;5098514;28;20642;-62
2022/08/30 06:08:27;;;;;;;2.57;2.37;;;;;;;;;;5098433;28;20236;-62
2022/08/30 06:10:55;;;;;;;5.13;2.27;;;;;;;;;;5098291;28;20671;-62
2022/08/30 06:13:23;;;;;;;4.50;2.23;;;;;;;;;;5098308;28;20591;-62
2022/08/30 06:15:51;;;;;;;4.03;2.57;;;;;;;;;;5098056;28;20659;-62
2022/08/30 06:18:21;;;;;;;2.80;2.13;;;;;;;;;;5118675;28;20204;-62
2022/08/30 06:20:55;;;;;;;2.63;2.17;;;;;;;;;;5118756;28;20266;-62
2022/08/30 06:23:23;;;;;;;2.83;2.20;;;;;;;;;;5118767;28;20232;-62
2022/08/30 06:25:51;;;;;;;3.80;2.53;;;;;;;;;;5098023;28;20237;-62
2022/08/30 06:28:19;;;;;;;4.07;2.23;;;;;;;;;;5098404;28;20218;-62
2022/08/30 06:30:47;;;;;;;2.33;2.13;;;;;;;;;;5098097;28;20215;-62
2022/08/30 06:33:15;;;;;;;3.70;2.57;;;;;;;;;;5097849;28;20227;-62
2022/08/30 06:35:44;;;;;;;4.07;2.30;;;;;;;;;;5098226;28;20267;-62
2022/08/30 06:38:25;;;;;;;3.50;2.10;;;;;;;;;;5098034;28;20288;-62
2022/08/30 06:40:53;;;;;;;4.80;2.60;;;;;;;;;;5098111;28;20250;-62
2022/08/30 06:43:21;;;;;;;3.17;2.20;;;;;;;;;;5098001;28;20310;-62
2022/08/30 06:45:49;;;;;;;3.97;2.60;;;;;;;;;;5097456;28;20286;-62
2022/08/30 06:48:17;;;;;;;2.43;2.23;;;;;;;;;;5098013;28;20218;-62
2022/08/30 06:50:52;;;;;;;5.97;2.27;;;;;;;;;;5098166;28;20299;-62
2022/08/30 06:53:23;;;;;;;4.07;2.17;;;;;;;;;;5097505;28;20243;-62
2022/08/30 06:55:56;;;;;;;6.97;2.93;;;;;;;;;;5097636;28;20718;-62
2022/08/30 06:58:24;;;;;;;3.27;2.33;;;;;;;;;;5097914;28;20207;-62
2022/08/30 07:00:52;;;;;;;8.90;2.83;;;;;;;;;;5097712;28;20236;-62
2022/08/30 07:03:21;;;;;;;4.60;2.70;;;;;;;;;;5097644;28;20261;-62
2022/08/30 07:05:50;;;;;;;5.87;2.90;;;;;;;;;;5097733;28;20284;-62
2022/08/30 07:08:18;;;;;;;4.80;2.40;;;;;;;;;;5097787;28;20244;-62
2022/08/30 07:10:46;;;;;;;3.07;2.40;;;;;;;;;;5097648;28;20244;-62
2022/08/30 07:13:14;;;;;;;4.03;2.70;;;;;;;;;;5097694;28;20261;-62
2022/08/30 07:15:43;;;;;;;2.83;2.63;;;;;;;;;;5096917;28;20263;-62
2022/08/30 07:20:58;;;;;;;3.63;2.23;;;;;;;;;;5117949;28;20208;-62
2022/08/30 07:23:26;;;;;;;4.07;2.67;;;;;;;;;;5117837;28;20230;-62
2022/08/30 07:25:54;;;;;;;5.93;2.63;;;;;;;;;;5104067;28;20667;-62
2022/08/30 07:28:22;;;;;;;2.90;2.53;;;;;;;;;;5117666;28;20222;-62
2022/08/30 07:30:50;;;;;;;6.37;3.63;;;;;;;;;;5117639;28;20219;-62
2022/08/30 07:33:18;;;;;;;4.60;2.20;;;;;;;;;;5117673;28;20234;-62
2022/08/30 07:35:46;;;;;;;4.33;2.80;;;;;;;;;;5117585;28;20220;-62
2022/08/30 07:38:16;;;;;;;3.10;2.27;;;;;;;;;;5118414;28;20668;-62
2022/08/30 07:40:44;;;;;;;2.77;2.07;;;;;;;;;;5121746;28;20212;-62
2022/08/30 07:43:12;;;;;;;2.30;2.10;;;;;;;;;;5121581;28;20259;-62
2022/08/30 07:45:40;;;;;;;3.27;2.73;;;;;;;;;;5121156;28;20211;-62
2022/08/30 07:48:10;;;;;;;3.20;2.70;;;;;;;;;;5121348;27;20258;-62
2022/08/30 07:50:38;;;;;;;3.90;2.77;;;;;;;;;;5121980;28;20691;-62
2022/08/30 07:53:06;;;;;;;3.17;2.50;;;;;;;;;;5121127;28;20248;-62
2022/08/30 07:55:39;;;;;;;4.77;2.97;;;;;;;;;;5121474;27;20233;-62
2022/08/30 07:58:07;;;;;;;5.10;3.40;;;;;;;;;;5121600;28;20237;-62
2022/08/30 08:00:35;;;;;;;6.33;4.73;;;;;;;;;;5121301;28;20246;-62
2022/08/30 08:03:07;;;;;;;4.77;3.07;;;;;;;;;;5121099;28;20239;-62
2022/08/30 08:05:36;;;;;;;16.67;4.23;;;;;;;;;;5121168;28;20664;-62
2022/08/30 08:08:05;;;;;;;19.93;6.17;;;;;;;;;;5121362;28;20243;-62
2022/08/30 08:10:33;;;;;;;11.67;4.47;;;;;;;;;;5120930;28;20635;-62
2022/08/30 08:13:03;;;;;;;6.73;3.50;;;;;;;;;;5121247;28;20206;-62
2022/08/30 08:15:31;;;;;;;4.70;3.63;;;;;;;;;;5120787;28;20221;-62
2022/08/30 08:17:59;;;;;;;7.50;3.13;;;;;;;;;;5112558;28;20308;-62
2022/08/30 08:20:28;;;;;;;5.20;3.23;;;;;;;;;;5100347;28;20687;-62
2022/08/30 08:22:56;;;;;;;5.33;3.17;;;;;;;;;;5102995;28;20291;-62
2022/08/30 08:25:24;;;;;;;4.77;2.97;;;;;;;;;;5120854;28;20232;-62
2022/08/30 08:27:52;;;;;;;7.70;3.47;;;;;;;;;;5120823;28;20238;-62
2022/08/30 08:30:23;;;;;;;3.53;3.20;;;;;;;;;;5120457;28;20207;-62
2022/08/30 08:32:51;;;;;;;7.60;3.00;;;;;;;;;;5120921;28;20231;-62
2022/08/30 08:35:19;;;;;;;4.60;3.30;;;;;;;;;;5120579;28;20662;-62
2022/08/30 08:37:47;;;;;;;5.17;3.10;;;;;;;;;;5120618;28;20233;-62
2022/08/30 08:40:17;;;;;;;7.73;3.10;;;;;;;;;;5120526;28;20243;-62
2022/08/30 08:42:51;;;;;;;4.03;3.43;;;;;;;;;;5120651;28;20246;-62
2022/08/30 08:45:21;;;;;;;4.93;3.10;;;;;;;;;;5120164;28;20242;-62
2022/08/30 08:47:54;;;;;;;3.27;2.97;;;;;;;;;;5120432;28;20655;-62
2022/08/30 08:50:23;;;;;;;5.07;3.13;;;;;;;;;;5120232;27;20231;-62
2022/08/30 08:55:57;;;;;;;7.03;3.37;;;;;;;;;;5120085;28;20624;-62
2022/08/30 08:58:26;;;;;;;5.70;3.10;;;;;;;;;;5120119;28;20549;-62
2022/08/30 09:00:55;;;;;;;8.07;3.23;;;;;;;;;;5119702;28;20238;-62
2022/08/30 09:03:25;;;;;;;7.00;3.77;;;;;;;;;;5119924;28;20241;-62
2022/08/30 09:05:54;;;;;;;4.50;3.50;;;;;;;;;;5120282;28;20233;-62
2022/08/30 09:08:23;;;;;;;3.45;3.15;;;;;;;;;;5120175;28;20204;-62
2022/08/30 09:10:55;;;;;;;7.38;3.38;;;;;;;;;;5119742;28;20638;-62
2022/08/30 09:13:24;;;;;;;3.38;3.08;;;;;;;;;;5120117;28;20277;-62
2022/08/30 09:15:55;;;;;;;8.30;3.80;;;;;;;;;;5119354;28;20306;-62
2022/08/30 09:18:37;;;;;;;5.60;3.80;;;;;;;;;;5107464;27;20217;-62
2022/08/30 09:21:10;;;;;;;4.97;3.40;;;;;;;;;;5109560;28;20671;-62
2022/08/30 09:23:46;;;;;;;5.83;3.73;;;;;;;;;;5113581;28;20752;-62
2022/08/30 09:26:14;;;;;;;5.70;3.50;;;;;;;;;;5098785;28;20239;-62
2022/08/30 09:28:45;;;;;;;6.07;4.73;;;;;;;;;;5119411;28;20255;-62
2022/08/30 09:31:18;;;;;;;6.87;4.23;;;;;;;;;;5119247;28;20210;-62
2022/08/30 09:33:53;;;;;;;8.55;4.10;;;;;;;;;;5119118;28;20231;-62
2022/08/30 09:36:25;;;;;;;9.47;4.50;;;;;;;;;;5119389;28;20247;-62
2022/08/30 09:38:57;;;;;;;4.70;3.90;;;;;;;;;;5119484;28;20265;-62
2022/08/30 09:41:27;;;;;;;5.20;3.80;;;;;;;;;;5119234;27;20212;-62
2022/08/30 09:44:04;;;;;;;5.37;3.33;;;;;;;;;;5119018;28;20247;-62
2022/08/30 09:46:32;;;;;;;7.10;4.03;;;;;;;;;;5118994;28;20216;-62
2022/08/30 09:49:00;;;;;;;4.07;3.60;;;;;;;;;;5118384;28;20669;-62
2022/08/30 09:51:40;;;;;;;4.93;3.87;;;;;;;;;;5116992;28;20291;-63
2022/08/30 09:54:13;;;;;;;4.13;3.77;;;;;;;;;;5116978;28;20273;-62
2022/08/30 09:56:49;;;;;;;4.90;3.87;;;;;;;;;;5117207;28;20257;-62
2022/08/30 09:59:26;;;;;;;4.43;3.67;;;;;;;;;;5117028;28;20211;-62
2022/08/30 10:01:59;;;;;;;5.13;3.80;;;;;;;;;;5115994;28;20233;-62
2022/08/30 10:04:31;;;;;;;4.13;3.70;;;;;;;;;;5117860;28;20262;-62
2022/08/30 10:07:02;;;;;;;4.33;3.93;;;;;;;;;;5118940;27;20202;-62
2022/08/30 10:09:33;;;;;;;5.13;4.10;;;;;;;;;;5118794;28;20232;-62
2022/08/30 10:12:06;;;;;;;7.20;4.80;;;;;;;;;;5118717;28;20219;-62
2022/08/30 10:14:48;;;;;;;4.27;3.87;;;;;;;;;;5118566;27;20274;-62
2022/08/30 10:17:22;;;;;;;4.93;4.43;;;;;;;;;;5115741;28;20228;-62
2022/08/30 10:19:59;;;;;;;5.53;4.30;;;;;;;;;;5098465;28;20212;-62
2022/08/30 10:22:31;;;;;;;5.73;3.93;;;;;;;;;;5098110;28;20724;-62
2022/08/30 10:25:02;;;;;;;5.87;4.37;;;;;;;;;;5117342;28;20690;-62
2022/08/30 10:27:34;;;;;;;4.73;4.23;;;;;;;;;;5118119;28;20201;-61
2022/08/30 10:30:06;;;;;;;4.30;3.90;;;;;;;;;;5118405;28;20209;-60
2022/08/30 10:32:36;;;;;;;7.07;4.23;;;;;;;;;;5118295;28;20256;-60
2022/08/30 10:35:07;;;;;;;4.23;3.83;;;;;;;;;;5115718;28;20250;-66
2022/08/30 10:37:38;;;;;;;4.30;3.90;;;;;;;;;;5113009;28;20260;-68
2022/08/30 10:42:53;;;;;;;6.07;3.93;;;;;;;;;;5110034;28;20201;-66
2022/08/30 10:45:22;;;;;;;10.13;4.27;;;;;;;;;;5117946;28;20206;-66
2022/08/30 10:47:53;;;;;;;6.50;3.93;;;;;;;;;;5118364;28;20241;-66
2022/08/30 10:50:28;;;;;;;5.30;4.77;;;;;;;;;;5118358;28;20245;-65
2022/08/30 10:52:59;;;;;;;4.67;4.23;;;;;;;;;;5117717;28;20236;-65
2022/08/30 10:55:29;;;;;;;6.53;3.50;;;;;;;;;;5117719;28;20233;-63
2022/08/30 10:57:59;;;;;;;3.97;3.33;;;;;;;;;;5114955;28;20221;-63
2022/08/30 11:00:29;;;;;;;5.80;3.33;;;;;;;;;;5116509;28;20194;-63
2022/08/30 11:03:13;;;;;;;3.67;3.03;;;;;;;;;;5113939;28;20199;-63
2022/08/30 11:05:50;;;;;;;3.47;3.00;;;;;;;;;;5104592;28;20210;-64
2022/08/30 11:08:35;;;;;;;3.57;3.03;;;;;;;;;;5097490;28;20208;-64
2022/08/30 11:11:06;;;;;;;3.90;3.00;;;;;;;;;;5097591;28;20204;-64
2022/08/30 11:13:41;;;;;;;4.07;3.33;;;;;;;;;;5101021;28;20245;-64
2022/08/30 11:16:14;;;;;;;4.10;3.03;;;;;;;;;;5119372;28;20210;-64
2022/08/30 11:18:44;;;;;;;5.87;2.87;;;;;;;;;;5107219;28;20227;-61
2022/08/30 11:21:20;;;;;;;3.20;2.85;;;;;;;;;;5105098;28;20220;-62
2022/08/30 11:24:01;;;;;;;2.80;2.33;;;;;;;;;;5110825;28;20223;-62
2022/08/30 11:26:47;;;;;;;3.08;2.88;;;;;;;;;;5110043;28;20201;-62
2022/08/30 11:29:28;;;;;;;6.37;3.00;;;;;;;;;;5109662;28;20205;-62
2022/08/30 11:31:59;;;;;;;5.53;2.95;;;;;;;;;;5121511;27;20332;-62
2022/08/30 11:34:45;;;;;;;6.00;2.90;;;;;;;;;;5121699;28;20226;-62
2022/08/30 11:37:32;;;;;;;3.63;2.72;;;;;;;;;;5121882;28;20221;-62
2022/08/30 11:40:02;;;;;;;6.05;3.13;;;;;;;;;;5106746;28;20204;-62
2022/08/30 11:42:32;;;;;;;5.35;2.80;;;;;;;;;;5121532;28;20574;-62
2022/08/30 11:45:20;;;;;;;3.90;2.80;;;;;;;;;;5121211;28;20238;-62
2022/08/30 11:47:52;;;;;;;6.07;2.80;;;;;;;;;;5121232;28;20201;-62
2022/08/30 11:50:22;;;;;;;3.22;2.85;;;;;;;;;;5121645;28;20211;-62
2022/08/30 11:52:54;;;;;;;6.55;3.20;;;;;;;;;;5119900;28;20238;-62
2022/08/30 11:55:37;;;;;;;9.48;2.95;;;;;;;;;;5106670;28;20205;-62
2022/08/30 11:58:16;;;;;;;4.03;3.03;;;;;;;;;;5121374;28;20229;-62
2022/08/30 12:00:46;;;;;;;3.70;3.10;;;;;;;;;;5121258;28;20270;-62
2022/08/30 12:03:30;;;;;;;4.80;3.25;;;;;;;;;;5121331;28;20230;-62
2022/08/30 12:05:59;;;;;;;6.25;2.85;;;;;;;;;;5111480;28;20199;-61
2022/08/30 12:08:42;;;;;;;7.40;2.83;;;;;;;;;;5114085;28;20202;-61
2022/08/30 12:11:46;;;;;;;3.38;2.90;;;;;;;;;;5121154;28;20286;-62
2022/08/30 12:14:29;;;;;;;5.18;2.92;;;;;;;;;;5075198;28;20255;-62
2022/08/30 12:19:49;;;;;;;3.00;2.75;;;;;;;;;;5103953;28;20217;-61
2022/08/30 12:22:18;;;;;;;5.30;3.20;;;;;;;;;;5120326;28;20645;-62
2022/08/30 12:24:48;;;;;;;5.78;2.78;;;;;;;;;;5109002;28;20713;-61
2022/08/30 12:27:23;;;;;;;4.10;3.67;;;;;;;;;;5100165;28;20648;-61
2022/08/30 12:29:52;;;;;;;5.90;3.00;;;;;;;;;;5110123;28;20206;-61
2022/08/30 12:32:22;;;;;;;3.42;3.13;;;;;;;;;;5120503;28;20203;-61
2022/08/30 12:34:53;;;;;;;3.70;3.42;;;;;;;;;;5120730;28;20229;-61
2022/08/30 12:37:23;;;;;;;4.00;3.60;;;;;;;;;;5120693;28;20237;-61
2022/08/30 12:40:00;;;;;;;9.27;3.47;;;;;;;;;;5120588;28;20203;-61
2022/08/30 12:42:30;;;;;;;3.65;3.35;;;;;;;;;;5110644;28;20288;-61
2022/08/30 12:45:01;;;;;;;7.80;3.58;;;;;;;;;;5099557;28;20753;-62
2022/08/30 12:47:42;;;;;;;5.80;3.10;;;;;;;;;;5115288;28;20207;-61
2022/08/30 12:50:15;;;;;;;3.97;3.67;;;;;;;;;;5120168;28;20206;-61
2022/08/30 12:52:47;;;;;;;5.50;3.07;;;;;;;;;;5119924;28;20237;-61
2022/08/30 12:55:19;;;;;;;4.17;2.83;;;;;;;;;;5120312;28;20211;-61
2022/08/30 12:57:55;;;;;;;4.13;3.17;;;;;;;;;;5119769;28;20312;-60
2022/08/30 13:00:28;;;;;;;3.17;2.97;;;;;;;;;;5119753;28;20222;-61
2022/08/30 13:02:58;;;;;;;5.93;3.40;;;;;;;;;;5117560;27;20234;-62
2022/08/30 13:05:30;;;;;;;3.90;2.93;;;;;;;;;;5111508;28;20202;-63
2022/08/30 13:08:08;;;;;;;4.03;3.37;;;;;;;;;;5119789;28;20208;-61
2022/08/30 13:10:48;;;;;;;5.57;3.57;;;;;;;;;;5119209;28;20200;-63
2022/08/30 13:13:27;;;;;;;3.20;2.90;;;;;;;;;;5113899;28;20254;-63
2022/08/30 13:15:55;;;;;;;3.20;2.90;;;;;;;;;;5115605;28;20228;-63
2022/08/30 13:18:29;;;;;;;3.80;3.03;;;;;;;;;;5119632;28;20309;-63
2022/08/30 13:21:11;;;;;;;3.50;3.17;;;;;;;;;;5099585;27;20648;-63
2022/08/30 13:23:39;;;;;;;4.70;3.77;;;;;;;;;;5112551;28;20229;-62
2022/08/30 13:26:07;;;;;;;3.33;2.93;;;;;;;;;;5099225;28;20211;-63
2022/08/30 13:28:48;;;;;;;4.10;3.30;;;;;;;;;;5098044;28;20199;-63
2022/08/30 13:31:16;;;;;;;4.77;3.20;;;;;;;;;;5110584;28;20209;-63
2022/08/30 13:33:45;;;;;;;4.63;2.83;;;;;;;;;;5118460;28;20245;-63
2022/08/30 13:36:13;;;;;;;3.30;3.10;;;;;;;;;;5118893;28;20266;-64
2022/08/30 13:38:42;;;;;;;3.67;3.38;;;;;;;;;;5115578;28;20308;-64
2022/08/30 13:41:10;;;;;;;3.30;3.00;;;;;;;;;;5110371;28;20197;-63
2022/08/30 13:43:38;;;;;;;3.45;3.03;;;;;;;;;;5118968;28;20270;-64
2022/08/30 13:46:26;;;;;;;8.80;3.20;;;;;;;;;;5106377;28;20198;-64
2022/08/30 13:48:58;;;;;;;4.68;3.60;;;;;;;;;;5118652;28;20580;-63
2022/08/30 13:51:28;;;;;;;3.33;2.88;;;;;;;;;;5118667;28;20208;-64
2022/08/30 13:53:57;;;;;;;4.30;3.22;;;;;;;;;;5115925;28;20314;-64
2022/08/30 13:56:26;;;;;;;3.42;2.90;;;;;;;;;;5105045;28;20210;-63
2022/08/30 13:58:58;;;;;;;5.00;2.83;;;;;;;;;;5113898;28;20231;-63
2022/08/30 14:01:26;;;;;;;3.65;3.35;;;;;;;;;;5118572;28;20266;-62
2022/08/30 14:03:56;;;;;;;3.33;3.03;;;;;;;;;;5118282;28;20587;-63
2022/08/30 14:06:44;;;;;;;3.50;3.20;;;;;;;;;;5118430;28;20676;-63
2022/08/30 14:09:32;;;;;;;3.97;3.10;;;;;;;;;;5118353;28;20211;-63
2022/08/30 14:12:00;;;;;;;4.20;2.60;;;;;;;;;;5108653;28;20217;-65
2022/08/30 14:14:28;;;;;;;4.80;3.10;;;;;;;;;;5118415;28;20244;-64
2022/08/30 14:17:09;;;;;;;8.23;3.40;;;;;;;;;;5116622;27;20204;-65
2022/08/30 14:19:40;;;;;;;4.77;3.00;;;;;;;;;;5106759;28;20622;-65
2022/08/30 14:22:08;;;;;;;6.97;3.47;;;;;;;;;;5118558;27;20200;-64
2022/08/30 14:24:37;;;;;;;3.43;2.93;;;;;;;;;;5108443;28;20229;-65
2022/08/30 14:27:05;;;;;;;5.30;2.60;;;;;;;;;;5098048;28;20262;-65
2022/08/30 14:29:33;;;;;;;5.53;3.37;;;;;;;;;;5097724;28;20214;-65
2022/08/30 14:32:02;;;;;;;3.47;2.85;;;;;;;;;;5100226;28;20202;-65
2022/08/30 14:34:30;;;;;;;2.90;2.70;;;;;;;;;;5109001;28;20223;-66
2022/08/30 14:37:00;;;;;;;4.00;2.92;;;;;;;;;;5118199;28;20205;-64
2022/08/30 14:39:28;;;;;;;4.00;2.67;;;;;;;;;;5110079;28;20233;-64
2022/08/30 14:41:56;;;;;;;5.37;3.13;;;;;;;;;;5117642;28;20231;-64
2022/08/30 14:44:30;;;;;;;4.35;3.28;;;;;;;;;;5105539;28;20276;-64
2022/08/30 14:47:18;;;;;;;3.47;3.20;;;;;;;;;;5107105;28;20670;-64
2022/08/30 14:49:46;;;;;;;3.22;2.63;;;;;;;;;;5118172;28;20230;-64
2022/08/30 14:52:16;;;;;;;2.83;2.63;;;;;;;;;;5117980;28;20233;-64
2022/08/30 14:54:44;;;;;;;5.22;2.90;;;;;;;;;;5117678;28;20232;-64
2022/08/30 14:57:12;;;;;;;4.00;2.88;;;;;;;;;;5117676;28;20674;-63
2022/08/30 14:59:40;;;;;;;4.32;3.28;;;;;;;;;;5117421;28;20598;-63
2022/08/30 15:02:09;;;;;;;3.42;2.88;;;;;;;;;;5117949;28;20207;-62
2022/08/30 15:04:37;;;;;;;4.67;3.10;;;;;;;;;;5118078;28;20229;-63
2022/08/30 15:07:05;;;;;;;5.10;3.07;;;;;;;;;;5117975;28;20234;-63
2022/08/30 15:09:41;;;;;;;3.50;2.97;;;;;;;;;;5118154;28;20213;-63
2022/08/30 15:12:09;;;;;;;3.53;2.93;;;;;;;;;;5117961;28;20206;-63
2022/08/30 15:14:37;;;;;;;3.03;2.73;;;;;;;;;;5106216;28;20228;-63